createdAt,value
2023-01-08T00:00:36.492Z,0
2023-01-08T00:01:16.973Z,0
2023-01-08T00:01:57.510Z,0
2023-01-08T00:02:38.059Z,0
2023-01-08T00:03:18.752Z,0
2023-01-08T00:03:59.141Z,0
2023-01-08T00:04:39.627Z,0
2023-01-08T00:07:08.401Z,0
2023-01-08T00:07:48.922Z,0
2023-01-08T00:08:29.423Z,0
2023-01-08T00:09:10.035Z,0
2023-01-08T00:11:23.077Z,0
2023-01-08T00:12:03.574Z,0
2023-01-08T00:12:44.115Z,0
2023-01-08T00:13:24.669Z,0
2023-01-08T00:14:05.264Z,0
2023-01-08T00:16:18.937Z,0
2023-01-08T00:16:59.369Z,0
2023-01-08T00:17:39.875Z,0
2023-01-08T00:18:20.392Z,0
2023-01-08T00:22:15.908Z,0
2023-01-08T00:22:56.429Z,0
2023-01-08T00:23:36.948Z,0
2023-01-08T00:24:17.487Z,0
2023-01-08T00:24:58.028Z,0
2023-01-08T00:25:38.537Z,0
2023-01-08T00:26:19.077Z,0
2023-01-08T00:26:59.597Z,0
2023-01-08T00:27:40.143Z,0
2023-01-08T00:28:20.636Z,0
2023-01-08T00:35:05.990Z,0
2023-01-08T00:35:46.594Z,0
2023-01-08T00:36:27.114Z,0
2023-01-08T00:37:07.633Z,0
2023-01-08T00:37:49.306Z,0
2023-01-08T00:38:30.218Z,0
2023-01-08T00:39:10.780Z,0
2023-01-08T00:44:05.681Z,0
2023-01-08T00:44:46.225Z,0
2023-01-08T00:45:26.798Z,0
2023-01-08T00:46:07.459Z,0
2023-01-08T00:46:47.898Z,0
2023-01-08T00:47:28.463Z,0
2023-01-08T00:48:09.001Z,0
2023-01-08T00:48:49.551Z,0
2023-01-08T00:49:30.067Z,0
2023-01-08T00:50:10.664Z,0
2023-01-08T00:56:15.676Z,0
2023-01-08T00:56:56.226Z,0
2023-01-08T00:57:36.775Z,0
2023-01-08T00:58:17.364Z,0
2023-01-08T00:58:57.914Z,0
2023-01-08T00:59:38.501Z,0
2023-01-08T01:00:18.988Z,0
2023-01-08T01:02:33.836Z,0
2023-01-08T01:03:14.304Z,0
2023-01-08T01:03:58.451Z,0
2023-01-08T01:04:39.575Z,0
2023-01-08T01:06:52.742Z,0
2023-01-08T01:07:33.278Z,0
2023-01-08T01:08:13.935Z,0
2023-01-08T01:08:55.254Z,0
2023-01-08T01:09:35.766Z,0
2023-01-08T01:10:16.251Z,0
2023-01-08T01:10:56.768Z,0
2023-01-08T01:11:37.303Z,0
2023-01-08T01:12:17.854Z,0
2023-01-08T01:18:22.788Z,0
2023-01-08T01:19:03.322Z,0
2023-01-08T01:19:43.823Z,0
2023-01-08T01:20:24.390Z,0
2023-01-08T01:22:37.700Z,0
2023-01-08T01:23:19.303Z,0
2023-01-08T01:23:59.711Z,0
2023-01-08T01:24:40.219Z,0
2023-01-08T01:25:20.800Z,0
2023-01-08T01:26:01.349Z,0
2023-01-08T01:26:41.861Z,0
2023-01-08T01:31:26.847Z,0
2023-01-08T01:32:07.389Z,0
2023-01-08T01:32:47.948Z,0
2023-01-08T01:33:28.510Z,0
2023-01-08T01:34:09.011Z,0
2023-01-08T01:34:50.347Z,0
2023-01-08T01:35:30.878Z,0
2023-01-08T01:36:11.378Z,0
2023-01-08T01:36:52.820Z,0
2023-01-08T01:42:17.034Z,0
2023-01-08T01:42:57.563Z,0
2023-01-08T01:43:38.053Z,0
2023-01-08T01:44:18.590Z,0
2023-01-08T01:44:59.096Z,0
2023-01-08T01:45:39.657Z,0
2023-01-08T01:46:20.225Z,0
2023-01-08T01:47:00.676Z,0
2023-01-08T01:47:41.220Z,0
2023-01-08T01:48:21.805Z,0
2023-01-08T01:53:02.401Z,0
2023-01-08T01:53:43.005Z,0
2023-01-08T01:54:23.694Z,0
2023-01-08T01:55:04.883Z,0
2023-01-08T01:57:18.181Z,0
2023-01-08T01:57:58.714Z,0
2023-01-08T01:58:39.273Z,0
2023-01-08T01:59:19.816Z,0
2023-01-08T02:00:00.373Z,0
2023-01-08T02:00:40.896Z,0
2023-01-08T02:01:21.479Z,0
2023-01-08T02:02:02.045Z,0
2023-01-08T02:02:42.417Z,0
2023-01-08T02:03:22.934Z,0
2023-01-08T02:09:27.888Z,0
2023-01-08T02:10:08.285Z,0
2023-01-08T02:10:49.588Z,0
2023-01-08T02:13:02.316Z,0
2023-01-08T02:13:42.840Z,0
2023-01-08T02:14:23.353Z,0
2023-01-08T02:15:03.864Z,0
2023-01-08T02:15:44.392Z,0
2023-01-08T02:16:24.945Z,0
2023-01-08T02:17:05.470Z,0
2023-01-08T02:17:45.972Z,0
2023-01-08T02:18:26.487Z,0
2023-01-08T02:19:07.030Z,0
2023-01-08T02:25:52.355Z,0
2023-01-08T02:26:32.893Z,0
2023-01-08T02:27:13.432Z,0
2023-01-08T02:27:53.993Z,0
2023-01-08T02:28:35.228Z,0
2023-01-08T02:29:15.724Z,0
2023-01-08T02:29:56.238Z,0
2023-01-08T02:30:36.803Z,0
2023-01-08T02:31:17.393Z,0
2023-01-08T02:37:18.087Z,0
2023-01-08T02:37:58.596Z,0
2023-01-08T02:38:39.133Z,0
2023-01-08T02:39:19.663Z,0
2023-01-08T02:40:00.354Z,0
2023-01-08T02:40:40.814Z,0
2023-01-08T02:41:21.354Z,0
2023-01-08T02:43:34.630Z,0
2023-01-08T02:44:15.671Z,0
2023-01-08T02:44:56.184Z,0
2023-01-08T02:45:36.731Z,0
2023-01-08T02:46:17.330Z,0
2023-01-08T02:46:57.831Z,0
2023-01-08T02:47:38.344Z,0
2023-01-08T02:48:18.856Z,0
2023-01-08T02:48:59.396Z,0
2023-01-08T02:55:04.340Z,0
2023-01-08T02:55:44.745Z,0
2023-01-08T02:58:18.137Z,0
2023-01-08T02:58:58.630Z,0
2023-01-08T02:59:39.154Z,0
2023-01-08T03:00:19.734Z,0
2023-01-08T03:01:00.260Z,0
2023-01-08T03:01:40.885Z,0
2023-01-08T03:02:22.170Z,0
2023-01-08T03:03:02.598Z,0
2023-01-08T03:03:44.067Z,0
2023-01-08T03:09:08.232Z,0
2023-01-08T03:09:48.801Z,0
2023-01-08T03:10:29.448Z,0
2023-01-08T03:11:09.869Z,0
2023-01-08T03:11:50.391Z,0
2023-01-08T03:12:30.926Z,0
2023-01-08T03:13:12.200Z,0
2023-01-08T03:13:52.719Z,0
2023-01-08T03:19:17.936Z,0
2023-01-08T03:19:58.473Z,0
2023-01-08T03:20:39.101Z,0
2023-01-08T03:21:19.601Z,0
2023-01-08T03:22:00.190Z,0
2023-01-08T03:22:40.695Z,0
2023-01-08T03:23:21.230Z,0
2023-01-08T03:24:01.795Z,0
2023-01-08T03:24:42.312Z,0
2023-01-08T03:25:22.903Z,0
2023-01-08T03:30:44.226Z,0
2023-01-08T03:31:24.689Z,0
2023-01-08T03:32:05.212Z,0
2023-01-08T03:32:45.796Z,0
2023-01-08T03:33:26.305Z,0
2023-01-08T03:34:06.815Z,0
2023-01-08T03:34:47.330Z,0
2023-01-08T03:35:27.877Z,0
2023-01-08T03:36:08.440Z,0
2023-01-08T03:39:24.851Z,0
2023-01-08T03:40:05.371Z,0
2023-01-08T03:40:46.649Z,0
2023-01-08T03:41:27.333Z,0
2023-01-08T03:42:07.762Z,0
2023-01-08T03:42:48.284Z,0
2023-01-08T03:43:28.863Z,0
2023-01-08T03:44:09.391Z,0
2023-01-08T03:47:28.432Z,0
2023-01-08T03:48:08.938Z,0
2023-01-08T03:48:49.458Z,0
2023-01-08T03:49:30.684Z,0
2023-01-08T03:50:11.191Z,0
2023-01-08T03:52:27.648Z,0
2023-01-08T03:53:09.005Z,0
2023-01-08T03:53:49.544Z,0
2023-01-08T03:54:30.925Z,0
2023-01-08T03:56:50.511Z,0
2023-01-08T03:57:30.883Z,0
2023-01-08T03:58:11.437Z,0
2023-01-08T03:58:51.973Z,0
2023-01-08T03:59:32.489Z,0
2023-01-08T04:00:13.162Z,0
2023-01-08T04:00:53.522Z,0
2023-01-08T04:01:34.151Z,0
2023-01-08T04:02:14.651Z,0
2023-01-08T04:04:28.719Z,0
2023-01-08T04:05:09.223Z,0
2023-01-08T04:05:49.831Z,0
2023-01-08T04:06:31.359Z,0
2023-01-08T04:08:49.493Z,0
2023-01-08T04:09:30.071Z,0
2023-01-08T04:10:11.443Z,0
2023-01-08T04:10:52.607Z,0
2023-01-08T04:13:10.859Z,0
2023-01-08T04:13:51.273Z,0
2023-01-08T04:14:31.817Z,0
2023-01-08T04:15:12.337Z,0
2023-01-08T04:15:53.005Z,0
2023-01-08T04:16:33.480Z,0
2023-01-08T04:17:14.019Z,0
2023-01-08T04:17:54.522Z,0
2023-01-08T04:18:35.022Z,0
2023-01-08T04:19:15.549Z,0
2023-01-08T04:26:01.006Z,0
2023-01-08T04:26:41.596Z,0
2023-01-08T04:27:22.095Z,0
2023-01-08T04:28:02.603Z,0
2023-01-08T04:28:43.299Z,0
2023-01-08T04:29:23.717Z,0
2023-01-08T04:30:04.291Z,0
2023-01-08T04:30:44.847Z,0
2023-01-08T04:31:25.330Z,0
2023-01-08T04:32:05.840Z,0
2023-01-08T04:38:01.902Z,0
2023-01-08T04:38:42.432Z,0
2023-01-08T04:39:22.959Z,0
2023-01-08T04:40:03.462Z,0
2023-01-08T04:40:44.003Z,0
2023-01-08T04:41:24.513Z,0
2023-01-08T04:42:05.028Z,0
2023-01-08T04:42:45.565Z,0
2023-01-08T04:46:02.128Z,0
2023-01-08T04:46:42.594Z,0
2023-01-08T04:47:23.015Z,0
2023-01-08T04:48:03.620Z,0
2023-01-08T04:48:44.160Z,0
2023-01-08T04:49:24.676Z,0
2023-01-08T04:50:05.188Z,0
2023-01-08T04:50:45.716Z,0
2023-01-08T04:51:26.224Z,0
2023-01-08T04:52:06.740Z,0
2023-01-08T04:58:52.016Z,0
2023-01-08T04:59:32.544Z,0
2023-01-08T05:00:13.040Z,0
2023-01-08T05:00:53.564Z,0
2023-01-08T05:01:34.286Z,0
2023-01-08T05:02:14.774Z,0
2023-01-08T05:02:55.332Z,0
2023-01-08T05:03:35.746Z,0
2023-01-08T05:04:16.274Z,0
2023-01-08T05:04:56.789Z,0
2023-01-08T05:11:02.306Z,0
2023-01-08T05:11:42.821Z,0
2023-01-08T05:12:23.333Z,0
2023-01-08T05:13:03.823Z,0
2023-01-08T05:15:16.873Z,0
2023-01-08T05:15:57.465Z,0
2023-01-08T05:16:38.081Z,0
2023-01-08T05:17:18.488Z,0
2023-01-08T05:17:59.017Z,0
2023-01-08T05:18:39.527Z,0
2023-01-08T05:19:20.032Z,0
2023-01-08T05:20:00.577Z,0
2023-01-08T05:20:41.124Z,0
2023-01-08T05:21:21.649Z,0
2023-01-08T05:28:58.735Z,0
2023-01-08T05:29:39.386Z,0
2023-01-08T05:30:19.945Z,0
2023-01-08T05:31:00.570Z,0
2023-01-08T05:33:13.621Z,0
2023-01-08T05:33:54.068Z,0
2023-01-08T05:34:34.596Z,0
2023-01-08T05:35:15.142Z,0
2023-01-08T05:35:55.679Z,0
2023-01-08T05:36:36.195Z,0
2023-01-08T05:37:16.705Z,0
2023-01-08T05:37:57.242Z,0
2023-01-08T05:40:10.347Z,0
2023-01-08T05:40:50.859Z,0
2023-01-08T05:41:32.002Z,0
2023-01-08T05:42:12.545Z,0
2023-01-08T05:42:53.705Z,0
2023-01-08T05:43:34.263Z,0
2023-01-08T05:44:14.801Z,0
2023-01-08T05:44:55.314Z,0
2023-01-08T05:50:20.245Z,0
2023-01-08T05:51:00.771Z,0
2023-01-08T05:51:41.275Z,0
2023-01-08T05:52:21.790Z,0
2023-01-08T05:53:02.334Z,0
2023-01-08T05:53:42.869Z,0
2023-01-08T05:54:23.412Z,0
2023-01-08T05:55:03.921Z,0
2023-01-08T05:57:16.717Z,0
2023-01-08T05:57:57.238Z,0
2023-01-08T05:58:38.650Z,0
2023-01-08T05:59:19.159Z,0
2023-01-08T06:01:33.790Z,0
2023-01-08T06:02:14.268Z,0
2023-01-08T06:02:54.800Z,0
2023-01-08T06:03:35.439Z,0
2023-01-08T06:04:15.922Z,0
2023-01-08T06:04:56.397Z,0
2023-01-08T06:05:37.626Z,0
2023-01-08T06:06:18.149Z,0
2023-01-08T06:06:58.680Z,0
2023-01-08T06:12:23.900Z,0
2023-01-08T06:13:04.434Z,0
2023-01-08T06:13:45.483Z,0
2023-01-08T06:16:13.629Z,0
2023-01-08T06:16:54.135Z,0
2023-01-08T06:17:34.682Z,0
2023-01-08T06:18:15.229Z,0
2023-01-08T06:18:55.874Z,0
2023-01-08T06:19:36.291Z,0
2023-01-08T06:20:16.866Z,0
2023-01-08T06:22:30.210Z,0
2023-01-08T06:23:10.544Z,0
2023-01-08T06:23:51.082Z,0
2023-01-08T06:24:31.599Z,0
2023-01-08T06:25:12.121Z,0
2023-01-08T06:25:53.594Z,0
2023-01-08T06:28:06.655Z,0
2023-01-08T06:28:47.166Z,0
2023-01-08T06:29:27.702Z,0
2023-01-08T06:30:08.257Z,0
2023-01-08T06:30:49.480Z,0
2023-01-08T06:31:30.453Z,0
2023-01-08T06:32:10.912Z,0
2023-01-08T06:34:39.322Z,0
2023-01-08T06:35:19.717Z,0
2023-01-08T06:36:00.245Z,0
2023-01-08T06:36:40.763Z,0
2023-01-08T06:37:21.300Z,0
2023-01-08T06:38:01.813Z,0
2023-01-08T06:38:42.339Z,0
2023-01-08T06:39:22.864Z,0
2023-01-08T06:40:03.430Z,0
2023-01-08T06:40:43.950Z,0
2023-01-08T06:43:23.952Z,0
2023-01-08T06:44:02.960Z,0
2023-01-08T06:44:43.506Z,0
2023-01-08T06:45:24.034Z,0
2023-01-08T06:46:04.605Z,0
2023-01-08T06:46:45.172Z,0
2023-01-08T06:47:25.599Z,0
2023-01-08T06:48:06.137Z,0
2023-01-08T06:48:46.701Z,0
2023-01-08T06:49:27.217Z,0
2023-01-08T06:56:12.410Z,4
2023-01-08T06:56:54.366Z,4
2023-01-08T06:57:33.422Z,4
2023-01-08T06:58:13.958Z,4
2023-01-08T06:58:54.481Z,8
2023-01-08T06:59:35.000Z,4
2023-01-08T07:00:15.534Z,8
2023-01-08T07:00:56.046Z,8
2023-01-08T07:01:36.649Z,8
2023-01-08T07:02:17.163Z,8
2023-01-08T07:09:02.370Z,24
2023-01-08T07:09:42.911Z,24
2023-01-08T07:10:23.446Z,28
2023-01-08T07:11:03.952Z,32
2023-01-08T07:11:44.496Z,32
2023-01-08T07:12:25.025Z,32
2023-01-08T07:13:05.538Z,40
2023-01-08T07:13:46.059Z,44
2023-01-08T07:15:59.790Z,40
2023-01-08T07:16:41.212Z,48
2023-01-08T07:17:23.267Z,52
2023-01-08T07:18:03.805Z,56
2023-01-08T07:20:18.340Z,68
2023-01-08T07:20:58.970Z,72
2023-01-08T07:21:39.384Z,76
2023-01-08T07:22:19.903Z,84
2023-01-08T07:23:00.960Z,100
2023-01-08T07:23:41.453Z,108
2023-01-08T07:24:21.971Z,112
2023-01-08T07:25:02.527Z,112
2023-01-08T07:25:43.069Z,116
2023-01-08T07:31:08.273Z,188
2023-01-08T07:31:48.742Z,184
2023-01-08T07:32:29.283Z,168
2023-01-08T07:33:09.803Z,184
2023-01-08T07:33:50.292Z,180
2023-01-08T07:34:30.835Z,196
2023-01-08T07:35:11.462Z,200
2023-01-08T07:37:24.913Z,140
2023-01-08T07:38:05.383Z,160
2023-01-08T07:38:45.852Z,160
2023-01-08T07:39:26.498Z,160
2023-01-08T07:40:07.100Z,148
2023-01-08T07:40:47.731Z,136
2023-01-08T07:41:28.259Z,124
2023-01-08T07:42:08.761Z,116
2023-01-08T07:42:49.370Z,112
2023-01-08T07:45:02.416Z,104
2023-01-08T07:45:43.901Z,112
2023-01-08T07:46:24.552Z,112
2023-01-08T07:47:04.993Z,116
2023-01-08T07:47:45.591Z,120
2023-01-08T07:48:26.922Z,132
2023-01-08T07:49:07.666Z,132
2023-01-08T07:53:53.140Z,216
2023-01-08T07:54:33.765Z,212
2023-01-08T07:55:14.371Z,212
2023-01-08T07:55:54.986Z,216
2023-01-08T07:56:35.545Z,228
2023-01-08T07:57:16.077Z,244
2023-01-08T07:57:56.672Z,268
2023-01-08T07:58:37.280Z,292
2023-01-08T08:03:22.437Z,408
2023-01-08T08:04:02.914Z,424
2023-01-08T08:04:43.413Z,432
2023-01-08T08:05:24.015Z,444
2023-01-08T08:06:04.610Z,456
2023-01-08T08:06:45.217Z,476
2023-01-08T08:07:25.773Z,500
2023-01-08T08:08:06.446Z,524
2023-01-08T08:08:46.924Z,540
2023-01-08T08:09:27.463Z,548
2023-01-08T08:15:32.571Z,664
2023-01-08T08:16:13.141Z,736
2023-01-08T08:16:53.692Z,780
2023-01-08T08:17:34.246Z,804
2023-01-08T08:19:47.319Z,916
2023-01-08T08:20:27.859Z,808
2023-01-08T08:21:08.429Z,716
2023-01-08T08:21:49.030Z,700
2023-01-08T08:22:29.510Z,696
2023-01-08T08:23:10.183Z,640
2023-01-08T08:23:50.620Z,616
2023-01-08T08:24:31.941Z,612
2023-01-08T08:29:52.318Z,552
2023-01-08T08:30:35.623Z,596
2023-01-08T08:31:16.390Z,596
2023-01-08T08:31:57.047Z,508
2023-01-08T08:32:37.564Z,496
2023-01-08T08:37:19.682Z,900
2023-01-08T08:38:00.222Z,932
2023-01-08T08:38:40.857Z,940
2023-01-08T08:39:21.236Z,892
2023-01-08T08:40:01.769Z,860
2023-01-08T08:40:42.290Z,852
2023-01-08T08:41:22.814Z,912
2023-01-08T08:42:03.330Z,892
2023-01-08T08:42:44.603Z,780
2023-01-08T08:46:59.251Z,956
2023-01-08T08:47:39.731Z,952
2023-01-08T08:48:20.268Z,928
2023-01-08T08:49:00.819Z,896
2023-01-08T08:49:41.355Z,836
2023-01-08T08:50:22.033Z,916
2023-01-08T08:51:02.566Z,1004
2023-01-08T08:51:43.107Z,984
2023-01-08T08:52:23.677Z,1024
2023-01-08T08:53:04.215Z,1012
2023-01-08T08:57:09.159Z,876
2023-01-08T08:57:49.762Z,840
2023-01-08T08:58:30.267Z,852
2023-01-08T08:59:10.828Z,884
2023-01-08T08:59:51.360Z,916
2023-01-08T09:00:31.910Z,988
2023-01-08T09:01:12.578Z,1048
2023-01-08T09:01:53.210Z,1152
2023-01-08T09:02:33.937Z,1496
2023-01-08T09:03:14.243Z,1816
2023-01-08T09:07:55.998Z,1656
2023-01-08T09:08:36.478Z,1600
2023-01-08T09:09:17.149Z,1256
2023-01-08T09:09:57.542Z,1340
2023-01-08T09:10:38.089Z,1596
2023-01-08T09:12:50.848Z,1532
2023-01-08T09:13:31.402Z,1404
2023-01-08T09:14:11.941Z,1176
2023-01-08T09:14:52.491Z,1120
2023-01-08T09:15:34.021Z,1520
2023-01-08T09:17:46.790Z,1724
2023-01-08T09:18:27.346Z,1900
2023-01-08T09:19:08.591Z,2168
2023-01-08T09:19:49.146Z,2236
2023-01-08T09:20:29.695Z,2140
2023-01-08T09:21:10.223Z,1976
2023-01-08T09:21:50.711Z,1724
2023-01-08T09:22:31.245Z,1516
2023-01-08T09:23:11.803Z,1600
2023-01-08T09:27:51.893Z,2400
2023-01-08T09:28:32.518Z,2492
2023-01-08T09:29:13.009Z,2700
2023-01-08T09:29:53.581Z,2964
2023-01-08T09:30:34.088Z,3028
2023-01-08T09:31:14.654Z,3520
2023-01-08T09:31:55.214Z,3972
2023-01-08T09:32:35.721Z,3876
2023-01-08T09:33:16.215Z,3656
2023-01-08T09:33:57.274Z,3480
2023-01-08T09:38:37.423Z,3880
2023-01-08T09:39:18.006Z,3832
2023-01-08T09:40:02.364Z,3580
2023-01-08T09:40:40.813Z,3628
2023-01-08T09:41:21.373Z,3808
2023-01-08T09:42:01.910Z,3840
2023-01-08T09:42:42.415Z,3920
2023-01-08T09:48:47.109Z,2956
2023-01-08T09:49:27.638Z,2908
2023-01-08T09:50:08.157Z,2884
2023-01-08T09:50:49.573Z,2900
2023-01-08T09:51:30.096Z,2988
2023-01-08T09:52:10.637Z,3056
2023-01-08T09:52:51.171Z,3092
2023-01-08T09:53:31.694Z,3124
2023-01-08T09:54:12.217Z,3180
2023-01-08T09:57:37.183Z,4128
2023-01-08T09:59:50.872Z,4932
2023-01-08T10:00:31.341Z,4984
2023-01-08T10:01:11.906Z,5040
2023-01-08T10:01:52.486Z,5100
2023-01-08T10:02:33.141Z,5104
2023-01-08T10:03:13.455Z,5076
2023-01-08T10:03:53.999Z,5028
2023-01-08T10:04:35.489Z,4972
2023-01-08T10:07:05.790Z,4620
2023-01-08T10:07:46.370Z,4556
2023-01-08T10:08:26.917Z,4536
2023-01-08T10:09:08.914Z,4564
2023-01-08T10:09:48.797Z,4660
2023-01-08T10:10:29.317Z,4740
2023-01-08T10:11:09.994Z,4928
2023-01-08T10:11:50.361Z,5156
2023-01-08T10:17:55.539Z,5764
2023-01-08T10:18:36.175Z,5832
2023-01-08T10:19:16.725Z,5916
2023-01-08T10:19:57.238Z,6056
2023-01-08T10:20:37.827Z,6280
2023-01-08T10:21:18.372Z,6468
2023-01-08T10:21:58.893Z,6648
2023-01-08T10:24:11.704Z,6684
2023-01-08T10:24:52.275Z,6440
2023-01-08T10:25:32.898Z,6436
2023-01-08T10:26:13.513Z,6540
2023-01-08T10:26:54.503Z,6524
2023-01-08T10:27:34.451Z,6456
2023-01-08T10:28:15.012Z,6436
2023-01-08T10:28:55.547Z,6328
2023-01-08T10:29:36.098Z,6156
2023-01-08T10:30:16.623Z,5980
2023-01-08T10:35:41.847Z,5344
2023-01-08T10:36:22.457Z,5304
2023-01-08T10:37:03.011Z,5212
2023-01-08T10:37:43.560Z,5252
2023-01-08T10:38:24.107Z,5544
2023-01-08T10:39:04.653Z,5796
2023-01-08T10:39:45.194Z,5848
2023-01-08T10:40:25.737Z,5940
2023-01-08T10:41:06.301Z,6108
2023-01-08T10:47:09.074Z,8112
2023-01-08T10:47:49.653Z,7492
2023-01-08T10:48:30.113Z,6840
2023-01-08T10:49:10.703Z,6416
2023-01-08T10:51:30.339Z,7256
2023-01-08T10:52:10.871Z,7824
2023-01-08T10:52:51.398Z,8448
2023-01-08T10:53:31.923Z,9088
2023-01-08T10:54:12.450Z,9292
2023-01-08T10:54:53.734Z,9360
2023-01-08T10:55:34.257Z,9668
2023-01-08T10:56:14.811Z,9860
2023-01-08T10:56:55.440Z,10024
2023-01-08T11:03:00.039Z,9272
2023-01-08T11:03:40.653Z,9220
2023-01-08T11:04:21.153Z,9280
2023-01-08T11:05:01.706Z,9320
2023-01-08T11:05:42.235Z,9160
2023-01-08T11:06:23.315Z,9220
2023-01-08T11:07:03.837Z,9368
2023-01-08T11:07:44.377Z,9176
2023-01-08T11:08:24.915Z,8312
2023-01-08T11:09:05.426Z,7228
2023-01-08T11:15:10.249Z,5072
2023-01-08T11:15:50.779Z,4956
2023-01-08T11:16:31.327Z,4972
2023-01-08T11:17:11.845Z,5288
2023-01-08T11:17:52.357Z,6084
2023-01-08T11:18:32.886Z,6640
2023-01-08T11:19:13.421Z,7004
2023-01-08T11:19:55.750Z,7112
2023-01-08T11:20:34.442Z,6796
2023-01-08T11:21:14.975Z,6312
2023-01-08T11:28:00.304Z,5120
2023-01-08T11:28:40.840Z,5532
2023-01-08T11:29:21.391Z,6192
2023-01-08T11:30:01.949Z,6808
2023-01-08T11:30:42.503Z,6980
2023-01-08T11:31:23.109Z,6992
2023-01-08T11:32:03.583Z,7096
2023-01-08T11:32:44.098Z,7464
2023-01-08T11:33:24.807Z,7808
2023-01-08T11:34:05.303Z,8184
2023-01-08T11:39:30.514Z,7472
2023-01-08T11:40:11.048Z,7500
2023-01-08T11:40:51.596Z,7528
2023-01-08T11:41:32.109Z,7456
2023-01-08T11:42:12.608Z,7272
2023-01-08T11:42:53.131Z,7184
2023-01-08T11:43:33.663Z,7044
2023-01-08T11:44:14.781Z,6908
2023-01-08T11:44:55.309Z,6936
2023-01-08T11:51:00.045Z,5808
2023-01-08T11:51:40.604Z,5624
2023-01-08T11:52:21.098Z,5940
2023-01-08T11:53:01.616Z,6240
2023-01-08T11:53:42.139Z,6184
2023-01-08T11:54:23.245Z,5980
2023-01-08T11:55:03.760Z,5900
2023-01-08T11:55:44.294Z,6228
2023-01-08T11:56:24.813Z,6788
2023-01-08T11:57:05.342Z,7064
2023-01-08T11:59:43.844Z,6256
2023-01-08T12:00:24.325Z,5880
2023-01-08T12:01:04.859Z,5652
2023-01-08T12:01:45.506Z,5564
2023-01-08T12:02:25.932Z,5900
2023-01-08T12:03:06.429Z,6984
2023-01-08T12:03:47.809Z,7644
2023-01-08T12:04:28.346Z,7000
2023-01-08T12:05:08.883Z,6748
2023-01-08T12:10:33.873Z,4444
2023-01-08T12:11:14.371Z,4232
2023-01-08T12:11:54.891Z,4720
2023-01-08T12:12:35.455Z,5324
2023-01-08T12:13:15.959Z,5348
2023-01-08T12:13:56.467Z,4876
2023-01-08T12:14:37.007Z,4048
2023-01-08T12:15:17.544Z,3332
2023-01-08T12:15:58.019Z,3000
2023-01-08T12:16:38.631Z,3040
2023-01-08T12:23:23.931Z,2252
2023-01-08T12:24:04.518Z,2164
2023-01-08T12:24:45.072Z,2252
2023-01-08T12:25:25.600Z,2540
2023-01-08T12:26:06.162Z,2832
2023-01-08T12:26:46.674Z,2996
2023-01-08T12:27:48.513Z,2980
2023-01-08T12:28:07.814Z,2948
2023-01-08T12:28:48.338Z,3108
2023-01-08T12:29:28.831Z,3328
2023-01-08T12:35:34.591Z,4248
2023-01-08T12:36:15.144Z,4644
2023-01-08T12:36:55.689Z,4572
2023-01-08T12:37:36.244Z,4656
2023-01-08T12:38:16.755Z,5132
2023-01-08T12:38:57.347Z,5788
2023-01-08T12:39:37.856Z,6272
2023-01-08T12:40:18.361Z,6220
2023-01-08T12:40:58.895Z,6112
2023-01-08T12:46:23.817Z,6104
2023-01-08T12:47:04.288Z,5264
2023-01-08T12:47:44.813Z,4564
2023-01-08T12:48:25.427Z,4300
2023-01-08T12:49:05.907Z,4456
2023-01-08T12:49:46.414Z,4700
2023-01-08T12:50:26.931Z,4804
2023-01-08T12:51:07.470Z,4840
2023-01-08T12:51:47.958Z,4840
2023-01-08T12:52:28.482Z,4512
2023-01-08T12:59:14.861Z,3144
2023-01-08T12:59:55.362Z,2972
2023-01-08T13:00:35.912Z,2860
2023-01-08T13:01:16.577Z,2840
2023-01-08T13:01:57.178Z,2856
2023-01-08T13:02:37.744Z,2928
2023-01-08T13:03:18.088Z,3116
2023-01-08T13:03:58.621Z,3308
2023-01-08T13:10:03.633Z,3112
2023-01-08T13:10:44.185Z,3120
2023-01-08T13:12:57.074Z,3692
2023-01-08T13:13:37.674Z,3904
2023-01-08T13:14:18.228Z,4044
2023-01-08T13:14:58.826Z,4124
2023-01-08T13:15:40.203Z,4100
2023-01-08T13:16:20.856Z,4124
2023-01-08T13:17:01.352Z,4256
2023-01-08T13:17:41.927Z,4540
2023-01-08T13:23:46.918Z,5468
2023-01-08T13:24:27.462Z,5412
2023-01-08T13:25:08.018Z,5268
2023-01-08T13:25:48.537Z,5116
2023-01-08T13:26:29.056Z,4964
2023-01-08T13:27:09.638Z,4880
2023-01-08T13:27:50.125Z,4928
2023-01-08T13:28:30.663Z,4980
2023-01-08T13:29:11.216Z,4836
2023-01-08T13:29:51.814Z,4964
2023-01-08T13:35:17.108Z,4776
2023-01-08T13:35:57.647Z,4724
2023-01-08T13:36:38.182Z,4556
2023-01-08T13:37:27.170Z,4332
2023-01-08T13:37:59.206Z,4060
2023-01-08T13:38:39.744Z,3784
2023-01-08T13:39:20.266Z,3632
2023-01-08T13:40:00.769Z,3668
2023-01-08T13:40:41.295Z,3816
2023-01-08T13:41:21.860Z,4096
2023-01-08T13:47:26.706Z,2204
2023-01-08T13:48:07.275Z,2280
2023-01-08T13:48:47.801Z,2412
2023-01-08T13:49:28.358Z,2508
2023-01-08T13:50:08.906Z,2632
2023-01-08T13:50:49.458Z,2792
2023-01-08T13:51:30.011Z,3080
2023-01-08T13:52:10.533Z,3420
2023-01-08T13:52:51.054Z,3644
2023-01-08T13:53:31.554Z,3744
2023-01-08T13:54:12.073Z,3896
2023-01-08T14:00:16.909Z,4120
2023-01-08T14:00:57.478Z,3940
2023-01-08T14:01:38.100Z,3748
2023-01-08T14:02:18.572Z,3780
2023-01-08T14:02:59.113Z,4028
2023-01-08T14:03:39.551Z,4328
2023-01-08T14:04:20.078Z,4540
2023-01-08T14:05:00.631Z,4344
2023-01-08T14:05:41.179Z,4180
2023-01-08T14:06:21.729Z,3984
2023-01-08T14:09:21.081Z,3368
2023-01-08T14:10:01.599Z,3300
2023-01-08T14:10:42.813Z,3040
2023-01-08T14:11:24.441Z,2928
2023-01-08T14:13:37.171Z,2876
2023-01-08T14:14:17.773Z,2900
2023-01-08T14:14:59.101Z,3260
2023-01-08T14:15:38.831Z,3340
2023-01-08T14:18:07.624Z,3424
2023-01-08T14:18:48.191Z,3520
2023-01-08T14:19:28.739Z,3688
2023-01-08T14:20:09.308Z,3892
2023-01-08T14:20:49.843Z,4136
2023-01-08T14:21:30.361Z,4068
2023-01-08T14:22:11.795Z,3972
2023-01-08T14:22:52.349Z,4064
2023-01-08T14:28:17.307Z,2464
2023-01-08T14:28:57.820Z,2444
2023-01-08T14:29:38.348Z,2364
2023-01-08T14:33:32.370Z,1988
2023-01-08T14:34:12.911Z,1864
2023-01-08T14:34:53.411Z,1716
2023-01-08T14:35:33.986Z,1592
2023-01-08T14:36:14.526Z,1476
2023-01-08T14:36:55.082Z,1412
2023-01-08T14:37:35.692Z,1392
2023-01-08T14:38:16.207Z,1396
2023-01-08T14:38:57.529Z,1436
2023-01-08T14:45:02.335Z,2520
2023-01-08T14:45:42.866Z,2704
2023-01-08T14:46:23.398Z,2796
2023-01-08T14:47:03.973Z,2772
2023-01-08T14:47:44.432Z,2724
2023-01-08T14:48:24.965Z,2680
2023-01-08T14:49:05.501Z,2568
2023-01-08T14:49:46.043Z,2444
2023-01-08T14:50:26.606Z,2256
2023-01-08T14:51:07.079Z,2072
2023-01-08T14:56:32.957Z,1472
2023-01-08T14:57:13.462Z,1412
2023-01-08T14:57:54.594Z,1368
2023-01-08T14:58:35.122Z,1308
2023-01-08T14:59:15.633Z,1248
2023-01-08T14:59:56.155Z,1184
2023-01-08T15:00:36.672Z,1112
2023-01-08T15:01:17.319Z,1048
2023-01-08T15:06:42.210Z,1032
2023-01-08T15:07:22.747Z,1036
2023-01-08T15:08:03.298Z,992
2023-01-08T15:08:43.847Z,920
2023-01-08T15:09:24.523Z,860
2023-01-08T15:10:05.056Z,832
2023-01-08T15:10:45.654Z,816
2023-01-08T15:11:26.166Z,820
2023-01-08T15:12:06.740Z,840
2023-01-08T15:12:47.262Z,860
2023-01-08T15:18:12.194Z,700
2023-01-08T15:18:54.228Z,656
2023-01-08T15:19:34.729Z,636
2023-01-08T15:20:15.269Z,628
2023-01-08T15:20:55.833Z,604
2023-01-08T15:21:36.358Z,572
2023-01-08T15:22:16.893Z,548
2023-01-08T15:22:57.435Z,528
2023-01-08T15:28:22.807Z,420
2023-01-08T15:29:03.325Z,404
2023-01-08T15:29:43.843Z,384
2023-01-08T15:30:24.516Z,360
2023-01-08T15:31:06.592Z,332
2023-01-08T15:31:47.254Z,304
2023-01-08T15:37:12.248Z,212
2023-01-08T15:37:52.792Z,208
2023-01-08T15:38:33.302Z,204
2023-01-08T15:39:13.817Z,204
2023-01-08T15:39:54.502Z,192
2023-01-08T15:40:35.035Z,180
2023-01-08T15:41:15.558Z,168
2023-01-08T15:41:56.079Z,160
2023-01-08T15:42:36.583Z,152
2023-01-08T15:43:17.157Z,144
2023-01-08T15:47:16.762Z,116
2023-01-08T15:47:57.359Z,108
2023-01-08T15:48:37.885Z,104
2023-01-08T15:49:18.423Z,96
2023-01-08T15:49:58.955Z,96
2023-01-08T15:50:40.133Z,88
2023-01-08T15:51:20.631Z,88
2023-01-08T15:52:01.178Z,84
2023-01-08T15:52:41.683Z,80
2023-01-08T15:57:26.413Z,44
2023-01-08T15:58:07.007Z,44
2023-01-08T16:00:20.061Z,36
2023-01-08T16:01:00.740Z,28
2023-01-08T16:01:41.221Z,28
2023-01-08T16:02:21.906Z,28
2023-01-08T16:03:02.348Z,24
2023-01-08T16:03:42.908Z,20
2023-01-08T16:04:23.512Z,16
2023-01-08T16:05:04.020Z,16
2023-01-08T16:05:44.550Z,12
2023-01-08T16:06:25.087Z,12